リスボン の空港の天気 - METARとTAF

ポルテラ空港 ( LPPT / LIS ) - ポルトガル リスボン
飛行場実況気象(Metar)
観測時間06/19 06:30 WEST (06/19 05:30 UTC)
風向・風速西南西 4m/s
視程6000m
天気現象
全天の8割程度の雲 雲底高度 120m
気温18℃
湿度94%
気圧1015hPa
METARLPPT 190530Z 24007KT 210V270 6000 3000N BKN004 18/17 Q1015
過去の天気等 Google飛行場航空写真 Wunderground天気予報

過去48時間のMETAR

飛行場予報(TAF)
発表時間: 6/19 06:00 WEST (6/19 05:00 UTC)
予報対象時間: 19日7時 WEST ~ 20日13時 WEST
風向・風速南西 4m/s
視程8000m
全天の4割程度の雲 雲底高度 90m
全天の8割程度の雲 雲底高度 240m
19日7時 WEST ~ 19日9時 WEST に一時的に
視程3000m
天気現象弱い雨霧雨 もや
全天の8割程度の雲 雲底高度 90m
19日9時 WEST ~ 19日12時 WEST に徐々に
視程10km以上
少しの雲 雲底高度 460m
全天の8割程度の雲 雲底高度 760m
19日17時 WEST ~ 19日19時 WEST に徐々に
風向・風速西 4m/s
全天の4割程度の雲 雲底高度 610m
19日20時 WEST ~ 19日23時 WEST に徐々に
風向・風速北北西 3m/s
全天の4割程度の雲 雲底高度 370m
20日9時 WEST ~ 20日11時 WEST に徐々に
全天の8割程度の雲 雲底高度 910m
TAF LPPT 190500Z 1906/2012 22008KT 8000 SCT003 BKN008
TEMPO 1906/1908 3000 -RADZ BR BKN003
BECMG 1908/1911 9999 FEW015 BKN025
BECMG 1916/1918 27007KT SCT020
BECMG 1919/1922 33005KT SCT012
BECMG 2008/2010 BKN030